sensor_id;sensor_type;location;lat;lon;timestamp;P1;durP1;ratioP1;P2;durP2;ratioP2
64875;SDS011;51369;49.862;9.908;2024-03-29T00:02:15;6.70;;;1.38;;
64875;SDS011;51369;49.862;9.908;2024-03-29T00:04:40;10.88;;;1.67;;
64875;SDS011;51369;49.862;9.908;2024-03-29T00:07:05;1.95;;;0.98;;
64875;SDS011;51369;49.862;9.908;2024-03-29T00:09:31;2.03;;;1.05;;
64875;SDS011;51369;49.862;9.908;2024-03-29T00:11:56;2.55;;;1.10;;
64875;SDS011;51369;49.862;9.908;2024-03-29T00:14:22;4.32;;;1.30;;
64875;SDS011;51369;49.862;9.908;2024-03-29T00:16:47;3.30;;;1.20;;
64875;SDS011;51369;49.862;9.908;2024-03-29T00:19:12;2.45;;;1.35;;
64875;SDS011;51369;49.862;9.908;2024-03-29T00:21:38;4.00;;;1.60;;
64875;SDS011;51369;49.862;9.908;2024-03-29T00:24:03;4.47;;;1.50;;
64875;SDS011;51369;49.862;9.908;2024-03-29T00:26:29;4.38;;;2.65;;
64875;SDS011;51369;49.862;9.908;2024-03-29T00:28:54;2.03;;;1.05;;
64875;SDS011;51369;49.862;9.908;2024-03-29T00:31:20;1.45;;;1.23;;
64875;SDS011;51369;49.862;9.908;2024-03-29T00:33:45;3.38;;;1.45;;
64875;SDS011;51369;49.862;9.908;2024-03-29T00:36:11;3.53;;;1.33;;
64875;SDS011;51369;49.862;9.908;2024-03-29T00:38:36;2.42;;;1.33;;
64875;SDS011;51369;49.862;9.908;2024-03-29T00:41:02;2.40;;;1.33;;
64875;SDS011;51369;49.862;9.908;2024-03-29T00:43:27;3.83;;;1.63;;
64875;SDS011;51369;49.862;9.908;2024-03-29T00:45:52;4.90;;;1.10;;
64875;SDS011;51369;49.862;9.908;2024-03-29T00:48:18;4.65;;;1.65;;
64875;SDS011;51369;49.862;9.908;2024-03-29T00:50:45;1.92;;;1.23;;
64875;SDS011;51369;49.862;9.908;2024-03-29T00:53:10;3.03;;;1.25;;
64875;SDS011;51369;49.862;9.908;2024-03-29T00:55:35;5.38;;;1.27;;
64875;SDS011;51369;49.862;9.908;2024-03-29T00:58:01;5.80;;;1.25;;
64875;SDS011;51369;49.862;9.908;2024-03-29T01:00:26;3.17;;;1.30;;
64875;SDS011;51369;49.862;9.908;2024-03-29T01:02:52;6.85;;;1.58;;
64875;SDS011;51369;49.862;9.908;2024-03-29T01:05:17;6.97;;;1.42;;
64875;SDS011;51369;49.862;9.908;2024-03-29T01:07:43;2.40;;;1.20;;
64875;SDS011;51369;49.862;9.908;2024-03-29T01:10:08;3.08;;;1.20;;
64875;SDS011;51369;49.862;9.908;2024-03-29T01:12:34;4.18;;;1.15;;
64875;SDS011;51369;49.862;9.908;2024-03-29T01:15:01;1.83;;;1.10;;
64875;SDS011;51369;49.862;9.908;2024-03-29T01:17:27;10.07;;;1.20;;
64875;SDS011;51369;49.862;9.908;2024-03-29T01:19:54;3.13;;;1.13;;
64875;SDS011;51369;49.862;9.908;2024-03-29T01:22:19;2.97;;;1.15;;
64875;SDS011;51369;49.862;9.908;2024-03-29T01:24:44;3.80;;;0.98;;
64875;SDS011;51369;49.862;9.908;2024-03-29T01:27:09;3.53;;;1.30;;
64875;SDS011;51369;49.862;9.908;2024-03-29T01:29:35;4.38;;;1.02;;
64875;SDS011;51369;49.862;9.908;2024-03-29T01:32:01;4.22;;;1.30;;
64875;SDS011;51369;49.862;9.908;2024-03-29T01:34:26;2.35;;;1.20;;
64875;SDS011;51369;49.862;9.908;2024-03-29T01:36:51;2.50;;;1.13;;
64875;SDS011;51369;49.862;9.908;2024-03-29T01:39:17;1.17;;;0.98;;
64875;SDS011;51369;49.862;9.908;2024-03-29T01:41:44;3.33;;;1.13;;
64875;SDS011;51369;49.862;9.908;2024-03-29T01:44:10;3.95;;;1.55;;
64875;SDS011;51369;49.862;9.908;2024-03-29T01:46:36;1.13;;;0.95;;
64875;SDS011;51369;49.862;9.908;2024-03-29T01:49:03;2.83;;;1.30;;
64875;SDS011;51369;49.862;9.908;2024-03-29T01:51:30;1.92;;;1.27;;
64875;SDS011;51369;49.862;9.908;2024-03-29T01:53:56;3.60;;;1.20;;
64875;SDS011;51369;49.862;9.908;2024-03-29T01:56:22;2.92;;;1.00;;
64875;SDS011;51369;49.862;9.908;2024-03-29T01:58:49;4.13;;;1.50;;
64875;SDS011;51369;49.862;9.908;2024-03-29T02:01:16;3.05;;;1.23;;
64875;SDS011;51369;49.862;9.908;2024-03-29T02:03:41;5.65;;;1.30;;
64875;SDS011;51369;49.862;9.908;2024-03-29T02:06:07;4.03;;;1.30;;
64875;SDS011;51369;49.862;9.908;2024-03-29T02:08:35;1.58;;;0.90;;
64875;SDS011;51369;49.862;9.908;2024-03-29T02:11:01;1.90;;;1.20;;
64875;SDS011;51369;49.862;9.908;2024-03-29T02:13:28;1.48;;;0.70;;
64875;SDS011;51369;49.862;9.908;2024-03-29T02:15:54;4.88;;;1.30;;
64875;SDS011;51369;49.862;9.908;2024-03-29T02:18:20;1.13;;;0.98;;
64875;SDS011;51369;49.862;9.908;2024-03-29T02:20:46;2.67;;;1.25;;
64875;SDS011;51369;49.862;9.908;2024-03-29T02:23:19;2.65;;;1.40;;
64875;SDS011;51369;49.862;9.908;2024-03-29T02:25:51;2.38;;;1.25;;
64875;SDS011;51369;49.862;9.908;2024-03-29T02:28:16;2.10;;;1.15;;
64875;SDS011;51369;49.862;9.908;2024-03-29T02:30:42;4.82;;;1.20;;
64875;SDS011;51369;49.862;9.908;2024-03-29T02:33:07;6.18;;;1.35;;
64875;SDS011;51369;49.862;9.908;2024-03-29T02:35:33;2.58;;;1.35;;
64875;SDS011;51369;49.862;9.908;2024-03-29T02:37:58;6.40;;;1.52;;
64875;SDS011;51369;49.862;9.908;2024-03-29T02:40:23;2.03;;;0.90;;
64875;SDS011;51369;49.862;9.908;2024-03-29T02:42:49;3.92;;;1.23;;
64875;SDS011;51369;49.862;9.908;2024-03-29T02:45:15;4.70;;;1.25;;
64875;SDS011;51369;49.862;9.908;2024-03-29T02:47:41;4.38;;;1.10;;
64875;SDS011;51369;49.862;9.908;2024-03-29T02:50:08;2.17;;;1.10;;
64875;SDS011;51369;49.862;9.908;2024-03-29T02:52:34;1.95;;;1.30;;
64875;SDS011;51369;49.862;9.908;2024-03-29T02:55:00;2.28;;;1.40;;
64875;SDS011;51369;49.862;9.908;2024-03-29T02:57:25;1.77;;;1.23;;
64875;SDS011;51369;49.862;9.908;2024-03-29T02:59:50;1.02;;;0.88;;
64875;SDS011;51369;49.862;9.908;2024-03-29T03:02:16;2.03;;;1.13;;
64875;SDS011;51369;49.862;9.908;2024-03-29T03:04:41;3.90;;;1.23;;
64875;SDS011;51369;49.862;9.908;2024-03-29T03:07:06;2.08;;;1.05;;
64875;SDS011;51369;49.862;9.908;2024-03-29T03:09:50;3.42;;;1.30;;
64875;SDS011;51369;49.862;9.908;2024-03-29T03:12:34;1.83;;;1.08;;
64875;SDS011;51369;49.862;9.908;2024-03-29T03:15:00;2.78;;;1.23;;
64875;SDS011;51369;49.862;9.908;2024-03-29T03:17:26;3.20;;;1.30;;
64875;SDS011;51369;49.862;9.908;2024-03-29T03:19:52;4.35;;;1.30;;
64875;SDS011;51369;49.862;9.908;2024-03-29T03:22:18;4.78;;;1.10;;
64875;SDS011;51369;49.862;9.908;2024-03-29T03:24:43;6.03;;;1.30;;
64875;SDS011;51369;49.862;9.908;2024-03-29T03:27:08;3.63;;;1.05;;
64875;SDS011;51369;49.862;9.908;2024-03-29T03:29:34;1.90;;;1.20;;
64875;SDS011;51369;49.862;9.908;2024-03-29T03:31:59;3.17;;;1.20;;
64875;SDS011;51369;49.862;9.908;2024-03-29T03:34:24;2.72;;;1.55;;
64875;SDS011;51369;49.862;9.908;2024-03-29T03:36:50;2.30;;;1.10;;
64875;SDS011;51369;49.862;9.908;2024-03-29T03:39:15;3.63;;;1.20;;
64875;SDS011;51369;49.862;9.908;2024-03-29T03:41:41;1.88;;;1.27;;
64875;SDS011;51369;49.862;9.908;2024-03-29T03:44:06;3.15;;;1.60;;
64875;SDS011;51369;49.862;9.908;2024-03-29T03:46:31;3.47;;;1.08;;
64875;SDS011;51369;49.862;9.908;2024-03-29T03:48:56;5.18;;;1.65;;
64875;SDS011;51369;49.862;9.908;2024-03-29T03:51:22;2.25;;;1.40;;
64875;SDS011;51369;49.862;9.908;2024-03-29T03:53:47;2.90;;;1.30;;
64875;SDS011;51369;49.862;9.908;2024-03-29T03:56:13;3.10;;;1.23;;
64875;SDS011;51369;49.862;9.908;2024-03-29T03:58:38;3.00;;;1.50;;
64875;SDS011;51369;49.862;9.908;2024-03-29T04:01:05;2.53;;;1.30;;
64875;SDS011;51369;49.862;9.908;2024-03-29T04:03:30;3.40;;;1.23;;
64875;SDS011;51369;49.862;9.908;2024-03-29T04:05:56;2.63;;;1.10;;
64875;SDS011;51369;49.862;9.908;2024-03-29T04:08:21;1.40;;;1.23;;
64875;SDS011;51369;49.862;9.908;2024-03-29T04:10:47;2.17;;;1.27;;
64875;SDS011;51369;49.862;9.908;2024-03-29T04:13:12;2.17;;;1.70;;
64875;SDS011;51369;49.862;9.908;2024-03-29T04:15:38;2.25;;;1.10;;
64875;SDS011;51369;49.862;9.908;2024-03-29T04:18:03;2.75;;;1.10;;
64875;SDS011;51369;49.862;9.908;2024-03-29T04:20:28;3.78;;;1.60;;
64875;SDS011;51369;49.862;9.908;2024-03-29T04:22:54;2.30;;;1.08;;
64875;SDS011;51369;49.862;9.908;2024-03-29T04:25:19;2.25;;;1.00;;
64875;SDS011;51369;49.862;9.908;2024-03-29T04:27:44;4.18;;;1.70;;
64875;SDS011;51369;49.862;9.908;2024-03-29T04:30:10;2.90;;;0.95;;
64875;SDS011;51369;49.862;9.908;2024-03-29T04:32:36;2.08;;;1.30;;
64875;SDS011;51369;49.862;9.908;2024-03-29T04:35:01;1.58;;;1.27;;
64875;SDS011;51369;49.862;9.908;2024-03-29T04:37:26;4.20;;;1.20;;
64875;SDS011;51369;49.862;9.908;2024-03-29T04:39:51;2.42;;;1.30;;
64875;SDS011;51369;49.862;9.908;2024-03-29T04:42:17;6.40;;;1.27;;
64875;SDS011;51369;49.862;9.908;2024-03-29T04:44:42;5.72;;;1.58;;
64875;SDS011;51369;49.862;9.908;2024-03-29T04:47:08;2.03;;;1.10;;
64875;SDS011;51369;49.862;9.908;2024-03-29T04:49:34;1.35;;;1.17;;
64875;SDS011;51369;49.862;9.908;2024-03-29T04:52:02;3.45;;;1.20;;
64875;SDS011;51369;49.862;9.908;2024-03-29T04:54:29;2.17;;;1.30;;
64875;SDS011;51369;49.862;9.908;2024-03-29T04:56:55;1.67;;;1.50;;
64875;SDS011;51369;49.862;9.908;2024-03-29T04:59:20;1.98;;;1.40;;
64875;SDS011;51369;49.862;9.908;2024-03-29T05:01:48;3.38;;;1.45;;
64875;SDS011;51369;49.862;9.908;2024-03-29T05:04:18;2.42;;;1.50;;
64875;SDS011;51369;49.862;9.908;2024-03-29T05:06:50;2.63;;;1.20;;
64875;SDS011;51369;49.862;9.908;2024-03-29T05:09:17;2.95;;;1.30;;
64875;SDS011;51369;49.862;9.908;2024-03-29T05:11:42;3.03;;;1.58;;
64875;SDS011;51369;49.862;9.908;2024-03-29T05:14:08;1.48;;;1.35;;
64875;SDS011;51369;49.862;9.908;2024-03-29T05:16:35;2.65;;;1.40;;
64875;SDS011;51369;49.862;9.908;2024-03-29T05:19:00;2.65;;;1.17;;
64875;SDS011;51369;49.862;9.908;2024-03-29T05:21:26;1.92;;;1.42;;
64875;SDS011;51369;49.862;9.908;2024-03-29T05:23:51;2.15;;;1.48;;
64875;SDS011;51369;49.862;9.908;2024-03-29T05:26:17;1.15;;;1.00;;
64875;SDS011;51369;49.862;9.908;2024-03-29T05:28:42;3.28;;;1.42;;
64875;SDS011;51369;49.862;9.908;2024-03-29T05:31:11;4.13;;;1.20;;
64875;SDS011;51369;49.862;9.908;2024-03-29T05:33:39;1.20;;;1.10;;
64875;SDS011;51369;49.862;9.908;2024-03-29T05:36:08;1.67;;;1.40;;
64875;SDS011;51369;49.862;9.908;2024-03-29T05:38:36;1.83;;;1.38;;
64875;SDS011;51369;49.862;9.908;2024-03-29T05:41:01;1.55;;;1.30;;
64875;SDS011;51369;49.862;9.908;2024-03-29T05:43:27;1.90;;;1.45;;
64875;SDS011;51369;49.862;9.908;2024-03-29T05:45:52;1.38;;;1.20;;
64875;SDS011;51369;49.862;9.908;2024-03-29T05:48:18;3.00;;;1.10;;
64875;SDS011;51369;49.862;9.908;2024-03-29T05:50:44;2.13;;;1.45;;
64875;SDS011;51369;49.862;9.908;2024-03-29T05:53:09;2.83;;;1.67;;
64875;SDS011;51369;49.862;9.908;2024-03-29T05:55:35;3.50;;;1.40;;
64875;SDS011;51369;49.862;9.908;2024-03-29T05:58:00;2.63;;;1.35;;
64875;SDS011;51369;49.862;9.908;2024-03-29T06:00:26;4.70;;;1.50;;
64875;SDS011;51369;49.862;9.908;2024-03-29T06:02:52;4.00;;;1.65;;
64875;SDS011;51369;49.862;9.908;2024-03-29T06:05:17;1.95;;;1.50;;
64875;SDS011;51369;49.862;9.908;2024-03-29T06:07:42;1.95;;;1.48;;
64875;SDS011;51369;49.862;9.908;2024-03-29T06:10:08;2.75;;;1.98;;
64875;SDS011;51369;49.862;9.908;2024-03-29T06:12:35;1.75;;;1.48;;
64875;SDS011;51369;49.862;9.908;2024-03-29T06:15:01;3.38;;;1.85;;
64875;SDS011;51369;49.862;9.908;2024-03-29T06:17:45;3.00;;;1.27;;
64875;SDS011;51369;49.862;9.908;2024-03-29T06:20:10;3.20;;;1.73;;
64875;SDS011;51369;49.862;9.908;2024-03-29T06:22:36;2.15;;;1.55;;
64875;SDS011;51369;49.862;9.908;2024-03-29T06:25:02;1.77;;;1.33;;
64875;SDS011;51369;49.862;9.908;2024-03-29T06:27:33;2.83;;;1.33;;
64875;SDS011;51369;49.862;9.908;2024-03-29T06:30:00;2.88;;;1.60;;
64875;SDS011;51369;49.862;9.908;2024-03-29T06:32:25;7.05;;;1.30;;
64875;SDS011;51369;49.862;9.908;2024-03-29T06:34:51;6.07;;;1.58;;
64875;SDS011;51369;49.862;9.908;2024-03-29T06:37:17;1.20;;;1.10;;
64875;SDS011;51369;49.862;9.908;2024-03-29T06:39:42;2.28;;;1.20;;
64875;SDS011;51369;49.862;9.908;2024-03-29T06:42:09;2.10;;;1.25;;
64875;SDS011;51369;49.862;9.908;2024-03-29T06:44:37;2.17;;;1.30;;
64875;SDS011;51369;49.862;9.908;2024-03-29T06:47:03;1.63;;;1.27;;
64875;SDS011;51369;49.862;9.908;2024-03-29T06:49:29;2.58;;;1.30;;
64875;SDS011;51369;49.862;9.908;2024-03-29T06:51:54;2.28;;;1.25;;
64875;SDS011;51369;49.862;9.908;2024-03-29T06:54:21;1.90;;;1.40;;
64875;SDS011;51369;49.862;9.908;2024-03-29T06:56:51;4.00;;;1.65;;
64875;SDS011;51369;49.862;9.908;2024-03-29T06:59:17;1.95;;;1.35;;
64875;SDS011;51369;49.862;9.908;2024-03-29T07:01:42;5.47;;;1.38;;
64875;SDS011;51369;49.862;9.908;2024-03-29T07:04:07;1.88;;;1.50;;
64875;SDS011;51369;49.862;9.908;2024-03-29T07:06:33;3.47;;;2.08;;
64875;SDS011;51369;49.862;9.908;2024-03-29T07:08:58;1.58;;;1.10;;
64875;SDS011;51369;49.862;9.908;2024-03-29T07:11:24;1.08;;;0.98;;
64875;SDS011;51369;49.862;9.908;2024-03-29T07:13:49;2.15;;;1.10;;
64875;SDS011;51369;49.862;9.908;2024-03-29T07:16:14;2.55;;;1.73;;
64875;SDS011;51369;49.862;9.908;2024-03-29T07:18:40;3.40;;;2.35;;
64875;SDS011;51369;49.862;9.908;2024-03-29T07:21:05;7.57;;;4.57;;
64875;SDS011;51369;49.862;9.908;2024-03-29T07:23:30;5.00;;;1.58;;
64875;SDS011;51369;49.862;9.908;2024-03-29T07:26:00;3.45;;;1.10;;
64875;SDS011;51369;49.862;9.908;2024-03-29T07:28:27;1.73;;;1.08;;
64875;SDS011;51369;49.862;9.908;2024-03-29T07:30:53;2.17;;;1.30;;
64875;SDS011;51369;49.862;9.908;2024-03-29T07:33:19;3.40;;;1.40;;
64875;SDS011;51369;49.862;9.908;2024-03-29T07:35:48;2.88;;;1.42;;
64875;SDS011;51369;49.862;9.908;2024-03-29T07:38:14;4.03;;;2.60;;
64875;SDS011;51369;49.862;9.908;2024-03-29T07:40:43;2.38;;;1.65;;
64875;SDS011;51369;49.862;9.908;2024-03-29T07:43:09;2.47;;;1.52;;
64875;SDS011;51369;49.862;9.908;2024-03-29T07:45:34;3.00;;;1.35;;
64875;SDS011;51369;49.862;9.908;2024-03-29T07:47:59;1.67;;;1.20;;
64875;SDS011;51369;49.862;9.908;2024-03-29T07:50:25;2.72;;;1.20;;
64875;SDS011;51369;49.862;9.908;2024-03-29T07:52:51;1.90;;;0.98;;
64875;SDS011;51369;49.862;9.908;2024-03-29T07:55:16;1.63;;;0.90;;
64875;SDS011;51369;49.862;9.908;2024-03-29T07:57:41;4.47;;;1.13;;
64875;SDS011;51369;49.862;9.908;2024-03-29T08:00:07;2.83;;;1.08;;
64875;SDS011;51369;49.862;9.908;2024-03-29T08:02:35;1.42;;;0.82;;
64875;SDS011;51369;49.862;9.908;2024-03-29T08:05:00;3.60;;;1.30;;
64875;SDS011;51369;49.862;9.908;2024-03-29T08:07:26;1.17;;;1.00;;
64875;SDS011;51369;49.862;9.908;2024-03-29T08:09:51;2.03;;;1.30;;
64875;SDS011;51369;49.862;9.908;2024-03-29T08:12:17;1.13;;;1.02;;
64875;SDS011;51369;49.862;9.908;2024-03-29T08:14:42;1.30;;;0.90;;
64875;SDS011;51369;49.862;9.908;2024-03-29T08:17:07;2.35;;;1.00;;
64875;SDS011;51369;49.862;9.908;2024-03-29T08:19:35;3.03;;;1.08;;
64875;SDS011;51369;49.862;9.908;2024-03-29T08:22:00;1.38;;;1.13;;
64875;SDS011;51369;49.862;9.908;2024-03-29T08:24:27;3.97;;;1.73;;
64875;SDS011;51369;49.862;9.908;2024-03-29T08:26:53;3.53;;;1.33;;
64875;SDS011;51369;49.862;9.908;2024-03-29T08:29:18;4.05;;;1.40;;
64875;SDS011;51369;49.862;9.908;2024-03-29T08:31:43;3.97;;;1.40;;
64875;SDS011;51369;49.862;9.908;2024-03-29T08:34:09;1.70;;;1.30;;
64875;SDS011;51369;49.862;9.908;2024-03-29T08:36:38;3.30;;;1.23;;
64875;SDS011;51369;49.862;9.908;2024-03-29T08:39:03;1.80;;;1.20;;
64875;SDS011;51369;49.862;9.908;2024-03-29T08:41:29;2.72;;;1.48;;
64875;SDS011;51369;49.862;9.908;2024-03-29T08:43:54;1.70;;;1.30;;
64875;SDS011;51369;49.862;9.908;2024-03-29T08:46:20;1.42;;;1.20;;
64875;SDS011;51369;49.862;9.908;2024-03-29T08:48:45;3.47;;;1.30;;
64875;SDS011;51369;49.862;9.908;2024-03-29T08:51:11;2.97;;;1.17;;
64875;SDS011;51369;49.862;9.908;2024-03-29T08:53:36;3.47;;;1.35;;
64875;SDS011;51369;49.862;9.908;2024-03-29T08:56:01;4.57;;;1.20;;
64875;SDS011;51369;49.862;9.908;2024-03-29T08:58:27;2.60;;;1.50;;
64875;SDS011;51369;49.862;9.908;2024-03-29T09:00:53;2.70;;;1.30;;
64875;SDS011;51369;49.862;9.908;2024-03-29T09:03:20;2.83;;;1.77;;
64875;SDS011;51369;49.862;9.908;2024-03-29T09:05:46;4.38;;;1.50;;
64875;SDS011;51369;49.862;9.908;2024-03-29T09:08:11;1.60;;;1.25;;
64875;SDS011;51369;49.862;9.908;2024-03-29T09:10:37;1.35;;;1.10;;
64875;SDS011;51369;49.862;9.908;2024-03-29T09:13:02;2.63;;;1.17;;
64875;SDS011;51369;49.862;9.908;2024-03-29T09:15:28;1.17;;;0.90;;
64875;SDS011;51369;49.862;9.908;2024-03-29T09:17:53;3.17;;;1.60;;
64875;SDS011;51369;49.862;9.908;2024-03-29T09:20:20;4.15;;;1.50;;
64875;SDS011;51369;49.862;9.908;2024-03-29T09:22:45;2.05;;;1.02;;
64875;SDS011;51369;49.862;9.908;2024-03-29T09:25:10;6.07;;;1.45;;
64875;SDS011;51369;49.862;9.908;2024-03-29T09:27:38;1.83;;;1.30;;
64875;SDS011;51369;49.862;9.908;2024-03-29T09:30:07;4.72;;;1.25;;
64875;SDS011;51369;49.862;9.908;2024-03-29T09:32:34;1.70;;;1.10;;
64875;SDS011;51369;49.862;9.908;2024-03-29T09:35:00;4.35;;;1.33;;
64875;SDS011;51369;49.862;9.908;2024-03-29T09:37:26;2.42;;;1.20;;
64875;SDS011;51369;49.862;9.908;2024-03-29T09:39:51;2.80;;;0.90;;
64875;SDS011;51369;49.862;9.908;2024-03-29T09:42:17;3.83;;;1.13;;
64875;SDS011;51369;49.862;9.908;2024-03-29T09:44:47;1.15;;;1.02;;
64875;SDS011;51369;49.862;9.908;2024-03-29T09:47:16;3.83;;;1.00;;
64875;SDS011;51369;49.862;9.908;2024-03-29T09:49:42;1.52;;;0.90;;
64875;SDS011;51369;49.862;9.908;2024-03-29T09:52:09;1.63;;;1.13;;
64875;SDS011;51369;49.862;9.908;2024-03-29T09:54:35;1.13;;;1.00;;
64875;SDS011;51369;49.862;9.908;2024-03-29T09:57:01;2.10;;;1.38;;
64875;SDS011;51369;49.862;9.908;2024-03-29T09:59:27;1.50;;;1.30;;
64875;SDS011;51369;49.862;9.908;2024-03-29T10:01:53;1.27;;;1.17;;
64875;SDS011;51369;49.862;9.908;2024-03-29T10:04:20;2.05;;;1.27;;
64875;SDS011;51369;49.862;9.908;2024-03-29T10:06:49;4.15;;;1.30;;
64875;SDS011;51369;49.862;9.908;2024-03-29T10:09:15;2.83;;;1.42;;
64875;SDS011;51369;49.862;9.908;2024-03-29T10:11:42;3.80;;;1.20;;
64875;SDS011;51369;49.862;9.908;2024-03-29T10:14:09;4.88;;;1.35;;
64875;SDS011;51369;49.862;9.908;2024-03-29T10:16:34;2.28;;;1.40;;
64875;SDS011;51369;49.862;9.908;2024-03-29T10:19:00;1.98;;;1.33;;
64875;SDS011;51369;49.862;9.908;2024-03-29T10:21:25;4.65;;;1.00;;
64875;SDS011;51369;49.862;9.908;2024-03-29T10:23:51;1.65;;;1.20;;
64875;SDS011;51369;49.862;9.908;2024-03-29T10:26:17;1.33;;;0.90;;
64875;SDS011;51369;49.862;9.908;2024-03-29T10:28:43;2.55;;;1.15;;
64875;SDS011;51369;49.862;9.908;2024-03-29T10:31:08;1.95;;;1.25;;
64875;SDS011;51369;49.862;9.908;2024-03-29T10:33:34;6.15;;;0.90;;
64875;SDS011;51369;49.862;9.908;2024-03-29T10:35:59;2.80;;;1.02;;
64875;SDS011;51369;49.862;9.908;2024-03-29T10:38:26;1.50;;;1.13;;
64875;SDS011;51369;49.862;9.908;2024-03-29T10:40:52;2.88;;;1.00;;
64875;SDS011;51369;49.862;9.908;2024-03-29T10:43:19;1.25;;;1.00;;
64875;SDS011;51369;49.862;9.908;2024-03-29T10:45:46;3.58;;;1.13;;
64875;SDS011;51369;49.862;9.908;2024-03-29T10:48:12;2.53;;;1.55;;
64875;SDS011;51369;49.862;9.908;2024-03-29T10:50:40;4.07;;;1.27;;
64875;SDS011;51369;49.862;9.908;2024-03-29T10:53:07;3.20;;;1.30;;
64875;SDS011;51369;49.862;9.908;2024-03-29T10:55:34;2.72;;;1.73;;
64875;SDS011;51369;49.862;9.908;2024-03-29T10:58:00;2.58;;;1.40;;
64875;SDS011;51369;49.862;9.908;2024-03-29T11:00:28;3.28;;;1.30;;
64875;SDS011;51369;49.862;9.908;2024-03-29T11:05:38;2.25;;;1.20;;
64875;SDS011;51369;49.862;9.908;2024-03-29T11:08:09;1.65;;;1.27;;
64875;SDS011;51369;49.862;9.908;2024-03-29T11:15:45;2.22;;;1.17;;
64875;SDS011;51369;49.862;9.908;2024-03-29T11:18:13;2.25;;;1.30;;
64875;SDS011;51369;49.862;9.908;2024-03-29T11:20:41;3.20;;;2.70;;
64875;SDS011;51369;49.862;9.908;2024-03-29T11:23:12;6.78;;;5.55;;
64875;SDS011;51369;49.862;9.908;2024-03-29T11:28:14;4.18;;;3.20;;
64875;SDS011;51369;49.862;9.908;2024-03-29T11:30:46;5.18;;;3.38;;
64875;SDS011;51369;49.862;9.908;2024-03-29T11:33:27;3.85;;;2.63;;
64875;SDS011;51369;49.862;9.908;2024-03-29T11:35:57;4.95;;;2.88;;
64875;SDS011;51369;49.862;9.908;2024-03-29T11:38:30;4.10;;;2.97;;
64875;SDS011;51369;49.862;9.908;2024-03-29T11:41:07;2.10;;;1.90;;
64875;SDS011;51369;49.862;9.908;2024-03-29T11:43:36;5.35;;;1.90;;
64875;SDS011;51369;49.862;9.908;2024-03-29T11:46:04;3.67;;;2.08;;
64875;SDS011;51369;49.862;9.908;2024-03-29T11:48:31;2.55;;;1.63;;
64875;SDS011;51369;49.862;9.908;2024-03-29T11:50:57;1.67;;;1.42;;
64875;SDS011;51369;49.862;9.908;2024-03-29T11:53:24;3.85;;;1.58;;
64875;SDS011;51369;49.862;9.908;2024-03-29T11:55:49;2.35;;;1.65;;
64875;SDS011;51369;49.862;9.908;2024-03-29T11:58:24;3.72;;;1.73;;
64875;SDS011;51369;49.862;9.908;2024-03-29T12:00:51;1.65;;;1.30;;
64875;SDS011;51369;49.862;9.908;2024-03-29T12:03:17;2.90;;;1.70;;
64875;SDS011;51369;49.862;9.908;2024-03-29T12:05:45;4.22;;;1.52;;
64875;SDS011;51369;49.862;9.908;2024-03-29T12:08:11;3.22;;;1.30;;
64875;SDS011;51369;49.862;9.908;2024-03-29T12:10:37;4.50;;;1.38;;
64875;SDS011;51369;49.862;9.908;2024-03-29T12:13:04;2.08;;;1.40;;
64875;SDS011;51369;49.862;9.908;2024-03-29T12:15:31;2.15;;;1.73;;
64875;SDS011;51369;49.862;9.908;2024-03-29T12:17:57;3.95;;;2.70;;
64875;SDS011;51369;49.862;9.908;2024-03-29T12:20:23;6.00;;;2.85;;
64875;SDS011;51369;49.862;9.908;2024-03-29T12:22:49;4.88;;;3.60;;
64875;SDS011;51369;49.862;9.908;2024-03-29T12:25:15;5.85;;;3.30;;
64875;SDS011;51369;49.862;9.908;2024-03-29T12:27:43;4.38;;;3.35;;
64875;SDS011;51369;49.862;9.908;2024-03-29T12:30:11;4.00;;;2.70;;
64875;SDS011;51369;49.862;9.908;2024-03-29T12:32:38;6.47;;;2.40;;
64875;SDS011;51369;49.862;9.908;2024-03-29T12:35:10;2.30;;;2.10;;
64875;SDS011;51369;49.862;9.908;2024-03-29T12:37:36;3.38;;;2.40;;
64875;SDS011;51369;49.862;9.908;2024-03-29T12:40:04;3.08;;;2.30;;
64875;SDS011;51369;49.862;9.908;2024-03-29T12:42:39;3.65;;;2.53;;
64875;SDS011;51369;49.862;9.908;2024-03-29T12:45:05;4.45;;;2.55;;
64875;SDS011;51369;49.862;9.908;2024-03-29T12:47:32;3.83;;;2.05;;
64875;SDS011;51369;49.862;9.908;2024-03-29T12:49:59;6.50;;;2.05;;
64875;SDS011;51369;49.862;9.908;2024-03-29T12:52:26;3.85;;;2.45;;
64875;SDS011;51369;49.862;9.908;2024-03-29T12:54:52;3.40;;;2.25;;
64875;SDS011;51369;49.862;9.908;2024-03-29T12:57:17;2.72;;;2.03;;
64875;SDS011;51369;49.862;9.908;2024-03-29T12:59:43;4.78;;;2.13;;
64875;SDS011;51369;49.862;9.908;2024-03-29T13:02:10;4.07;;;1.95;;
64875;SDS011;51369;49.862;9.908;2024-03-29T13:04:35;3.20;;;1.98;;
64875;SDS011;51369;49.862;9.908;2024-03-29T13:07:01;4.05;;;2.20;;
64875;SDS011;51369;49.862;9.908;2024-03-29T13:09:26;4.07;;;2.60;;
64875;SDS011;51369;49.862;9.908;2024-03-29T13:11:52;2.58;;;2.15;;
64875;SDS011;51369;49.862;9.908;2024-03-29T13:14:17;3.38;;;2.20;;
64875;SDS011;51369;49.862;9.908;2024-03-29T13:16:42;2.88;;;2.28;;
64875;SDS011;51369;49.862;9.908;2024-03-29T13:19:08;4.55;;;2.60;;
64875;SDS011;51369;49.862;9.908;2024-03-29T13:21:33;3.65;;;2.65;;
64875;SDS011;51369;49.862;9.908;2024-03-29T13:23:58;5.05;;;2.50;;
64875;SDS011;51369;49.862;9.908;2024-03-29T13:26:24;4.43;;;2.45;;
64875;SDS011;51369;49.862;9.908;2024-03-29T13:28:49;5.78;;;2.90;;
64875;SDS011;51369;49.862;9.908;2024-03-29T13:31:14;2.88;;;2.65;;
64875;SDS011;51369;49.862;9.908;2024-03-29T13:33:40;4.78;;;2.63;;
64875;SDS011;51369;49.862;9.908;2024-03-29T13:36:05;3.88;;;2.97;;
64875;SDS011;51369;49.862;9.908;2024-03-29T13:38:31;5.32;;;2.90;;
64875;SDS011;51369;49.862;9.908;2024-03-29T13:40:56;3.33;;;3.00;;
64875;SDS011;51369;49.862;9.908;2024-03-29T13:43:22;6.57;;;3.38;;
64875;SDS011;51369;49.862;9.908;2024-03-29T13:45:48;6.78;;;2.90;;
64875;SDS011;51369;49.862;9.908;2024-03-29T13:48:14;4.43;;;3.30;;
64875;SDS011;51369;49.862;9.908;2024-03-29T13:50:40;4.25;;;3.28;;
64875;SDS011;51369;49.862;9.908;2024-03-29T13:53:05;6.72;;;3.20;;
64875;SDS011;51369;49.862;9.908;2024-03-29T13:55:31;4.22;;;2.92;;
64875;SDS011;51369;49.862;9.908;2024-03-29T13:57:56;4.40;;;2.92;;
64875;SDS011;51369;49.862;9.908;2024-03-29T14:00:22;3.70;;;3.35;;
64875;SDS011;51369;49.862;9.908;2024-03-29T14:02:47;3.88;;;2.75;;
64875;SDS011;51369;49.862;9.908;2024-03-29T14:05:13;3.80;;;3.08;;
64875;SDS011;51369;49.862;9.908;2024-03-29T14:07:38;3.08;;;2.78;;
64875;SDS011;51369;49.862;9.908;2024-03-29T14:10:04;6.30;;;2.60;;
64875;SDS011;51369;49.862;9.908;2024-03-29T14:12:31;3.13;;;2.83;;
64875;SDS011;51369;49.862;9.908;2024-03-29T14:14:57;3.85;;;2.67;;
64875;SDS011;51369;49.862;9.908;2024-03-29T14:17:23;6.35;;;3.33;;
64875;SDS011;51369;49.862;9.908;2024-03-29T14:19:49;4.13;;;3.08;;
64875;SDS011;51369;49.862;9.908;2024-03-29T14:22:16;4.63;;;3.38;;
64875;SDS011;51369;49.862;9.908;2024-03-29T14:24:44;5.30;;;3.78;;
64875;SDS011;51369;49.862;9.908;2024-03-29T14:27:10;3.70;;;3.25;;
64875;SDS011;51369;49.862;9.908;2024-03-29T14:29:38;4.97;;;3.45;;
64875;SDS011;51369;49.862;9.908;2024-03-29T14:32:03;4.90;;;3.60;;
64875;SDS011;51369;49.862;9.908;2024-03-29T14:34:29;4.82;;;3.28;;
64875;SDS011;51369;49.862;9.908;2024-03-29T14:37:02;5.80;;;3.83;;
64875;SDS011;51369;49.862;9.908;2024-03-29T14:39:28;7.45;;;3.13;;
64875;SDS011;51369;49.862;9.908;2024-03-29T14:41:53;5.55;;;3.42;;
64875;SDS011;51369;49.862;9.908;2024-03-29T14:44:19;4.03;;;2.78;;
64875;SDS011;51369;49.862;9.908;2024-03-29T14:46:45;3.65;;;3.00;;
64875;SDS011;51369;49.862;9.908;2024-03-29T14:49:14;3.47;;;2.67;;
64875;SDS011;51369;49.862;9.908;2024-03-29T14:51:40;6.00;;;2.97;;
64875;SDS011;51369;49.862;9.908;2024-03-29T14:54:06;3.83;;;2.78;;